Time;durP1;ratioP1;P1;durP2;ratioP2;P2;SDS_P1;SDS_P2;PMS_P1;PMS_P2;Temp;Humidity;BMP_temperature;BMP_pressure;BME280_temperature;BME280_humidity;BME280_pressure;Samples;Min_cycle;Max_cycle;Signal;HPM_P1;HPM_P2
2022/05/20 00:01:07;;;;;;;13.68;9.32;;;9.10;99.90;;;;;;5010595;28;20018;-83
2022/05/20 00:03:35;;;;;;;18.75;10.32;;;9.10;99.90;;;;;;5012964;28;20022;-83
2022/05/20 00:06:01;;;;;;;17.85;10.82;;;9.30;99.90;;;;;;5014217;28;20011;-83
2022/05/20 00:08:28;;;;;;;22.27;12.13;;;9.20;99.90;;;;;;5025536;28;20062;-83
2022/05/20 00:10:54;;;;;;;20.77;11.90;;;9.20;99.90;;;;;;4999427;28;20478;-83
2022/05/20 00:13:21;;;;;;;18.45;12.40;;;9.20;99.90;;;;;;5013763;28;20037;-83
2022/05/20 00:15:47;;;;;;;21.20;11.50;;;9.00;99.90;;;;;;4997752;28;20027;-83
2022/05/20 00:18:13;;;;;;;17.13;11.55;;;8.90;99.90;;;;;;4999946;28;20026;-83
2022/05/20 00:20:38;;;;;;;16.08;11.10;;;8.80;99.90;;;;;;4997945;28;20022;-83
2022/05/20 00:23:04;;;;;;;21.52;11.90;;;8.90;99.90;;;;;;4998759;28;20030;-82
2022/05/20 00:25:48;;;;;;;20.80;11.80;;;8.80;99.90;;;;;;5014323;28;20118;-83
2022/05/20 00:28:22;;;;;;;19.02;12.77;;;8.80;99.90;;;;;;5001568;28;20050;-83
2022/05/20 00:30:53;;;;;;;22.42;12.80;;;8.90;99.90;;;;;;5016270;28;20022;-83
2022/05/20 00:33:19;;;;;;;19.50;12.18;;;8.90;99.90;;;;;;4990200;28;20027;-83
2022/05/20 00:35:46;;;;;;;25.85;14.00;;;8.90;99.90;;;;;;4979490;28;20110;-83
2022/05/20 00:38:12;;;;;;;18.33;12.23;;;8.80;99.90;;;;;;4980229;28;20030;-83
2022/05/20 00:40:38;;;;;;;22.75;12.95;;;8.90;99.90;;;;;;4979672;28;20602;-84
2022/05/20 00:43:22;;;;;;;20.45;12.18;;;8.90;99.90;;;;;;4979735;28;20035;-84
2022/05/20 00:45:48;;;;;;;20.13;12.05;;;8.90;99.90;;;;;;4977223;28;20054;-83
2022/05/20 00:48:14;;;;;;;20.92;13.05;;;8.80;99.90;;;;;;4994328;28;20030;-83
2022/05/20 00:50:50;;;;;;;20.90;12.73;;;8.80;99.90;;;;;;5000627;28;20038;-83
2022/05/20 00:53:18;;;;;;;18.67;12.77;;;8.80;99.90;;;;;;5004245;28;20489;-83
2022/05/20 00:55:46;;;;;;;22.23;13.65;;;8.70;99.90;;;;;;5003709;28;20061;-83
2022/05/20 00:58:15;;;;;;;21.15;12.90;;;8.70;99.90;;;;;;4999553;28;20018;-83
2022/05/20 01:00:48;;;;;;;22.10;13.55;;;8.70;99.90;;;;;;5000004;28;20660;-83
2022/05/20 01:03:16;;;;;;;21.20;13.20;;;8.70;99.90;;;;;;4999165;28;20026;-83
2022/05/20 01:05:45;;;;;;;19.05;13.48;;;8.70;99.90;;;;;;5000478;28;20037;-82
2022/05/20 01:08:17;;;;;;;19.48;13.00;;;8.80;99.90;;;;;;5000905;28;20032;-83
2022/05/20 01:10:42;;;;;;;19.02;12.68;;;8.70;99.90;;;;;;4999234;28;20034;-82
2022/05/20 01:13:09;;;;;;;21.02;13.90;;;8.80;99.90;;;;;;4999988;28;20457;-82
2022/05/20 01:15:34;;;;;;;22.23;13.60;;;8.90;99.90;;;;;;4999393;28;20033;-82
2022/05/20 01:18:00;;;;;;;21.70;12.15;;;9.00;99.90;;;;;;4999931;28;20026;-83
2022/05/20 01:20:30;;;;;;;18.50;13.20;;;8.90;99.90;;;;;;5001207;28;20101;-81
2022/05/20 01:23:01;;;;;;;22.17;14.32;;;8.90;99.90;;;;;;5001581;28;20029;-82
2022/05/20 01:25:30;;;;;;;23.80;13.57;;;9.00;99.90;;;;;;5001143;28;20042;-82
2022/05/20 01:27:57;;;;;;;21.52;13.35;;;9.10;99.90;;;;;;5000750;28;20037;-83
2022/05/20 01:30:25;;;;;;;21.92;14.73;;;9.10;99.90;;;;;;5000294;28;20057;-83
2022/05/20 01:32:52;;;;;;;20.00;13.98;;;9.10;99.90;;;;;;4983493;28;20390;-82
2022/05/20 01:35:28;;;;;;;22.02;13.80;;;9.00;99.90;;;;;;4981497;28;20061;-82
2022/05/20 01:37:54;;;;;;;18.90;11.95;;;9.00;99.90;;;;;;4999099;28;20057;-82
2022/05/20 01:40:20;;;;;;;20.98;13.63;;;8.90;99.90;;;;;;4999136;28;20022;-83
2022/05/20 01:43:01;;;;;;;19.88;12.65;;;8.90;99.90;;;;;;4999838;28;20057;-84
2022/05/20 01:45:31;;;;;;;17.95;12.60;;;8.80;99.90;;;;;;4997962;28;20022;-84
2022/05/20 01:48:05;;;;;;;;;;;8.80;99.90;;;;;;4997669;28;20474;-83
2022/05/20 01:50:52;;;;;;;18.65;11.00;;;8.70;99.90;;;;;;4980909;28;19905;-83
2022/05/20 01:53:32;;;;;;;17.75;12.13;;;8.70;99.90;;;;;;4970224;28;20059;-83
2022/05/20 01:56:03;;;;;;;16.45;11.85;;;8.70;99.90;;;;;;4962025;28;20062;-84
2022/05/20 01:58:37;;;;;;;18.63;11.35;;;8.60;99.90;;;;;;4979544;28;20033;-83
2022/05/20 02:01:10;;;;;;;16.13;11.40;;;8.60;99.90;;;;;;4981567;28;20102;-83
2022/05/20 02:03:43;;;;;;;17.20;12.10;;;8.50;99.90;;;;;;4952944;29;20030;-83
2022/05/20 02:06:18;;;;;;;23.00;12.02;;;8.50;99.90;;;;;;4959620;29;20055;-83
2022/05/20 02:08:56;;;;;;;17.65;11.77;;;8.60;99.90;;;;;;4971996;28;20035;-83
2022/05/20 02:11:39;;;;;;;21.40;12.50;;;8.70;99.90;;;;;;4978548;28;20031;-83
2022/05/20 02:14:23;;;;;;;21.90;14.63;;;8.70;99.90;;;;;;4980497;28;20037;-83
2022/05/20 02:16:59;;;;;;;21.15;13.55;;;9.00;99.90;;;;;;4980519;28;20471;-83
2022/05/20 02:19:32;;;;;;;20.20;13.65;;;9.00;99.90;;;;;;4979540;28;20038;-83
2022/05/20 02:22:02;;;;;;;19.27;12.80;;;9.00;99.90;;;;;;4979511;28;20031;-83
2022/05/20 02:24:30;;;;;;;21.15;13.30;;;9.00;99.90;;;;;;4980262;28;20066;-83
2022/05/20 02:27:01;;;;;;;21.55;13.30;;;9.00;99.90;;;;;;4981044;28;20058;-83
2022/05/20 02:29:32;;;;;;;16.67;12.25;;;9.00;99.90;;;;;;4963237;28;20022;-83
2022/05/20 02:32:13;;;;;;;19.95;12.07;;;8.90;99.90;;;;;;4964266;28;20027;-83
2022/05/20 02:34:39;;;;;;;16.02;11.52;;;8.80;99.90;;;;;;4979941;28;20042;-83
2022/05/20 02:37:38;;;;;;;18.35;12.23;;;8.80;99.90;;;;;;4960663;28;20026;-83
2022/05/20 02:40:07;;;;;;;20.00;12.45;;;8.70;99.90;;;;;;4948170;28;20716;-84
2022/05/20 02:42:33;;;;;;;19.17;13.23;;;8.80;99.90;;;;;;4965628;28;20074;-83
2022/05/20 02:45:00;;;;;;;20.15;12.90;;;8.80;99.90;;;;;;4967959;28;20023;-84
2022/05/20 02:47:31;;;;;;;15.20;12.05;;;8.80;99.90;;;;;;4964928;28;20027;-84
2022/05/20 02:49:57;;;;;;;18.60;12.35;;;8.70;99.90;;;;;;4963643;28;20027;-84
2022/05/20 02:52:23;;;;;;;17.17;12.20;;;8.60;99.90;;;;;;4978196;28;20041;-83
2022/05/20 02:54:48;;;;;;;19.80;12.32;;;8.50;99.90;;;;;;4993847;28;20042;-83
2022/05/20 02:57:14;;;;;;;18.33;11.95;;;8.60;99.90;;;;;;4980342;28;20046;-84
2022/05/20 03:05:08;;;;;;;13.63;10.77;;;8.50;99.90;;;;;;4998838;28;20382;-84
2022/05/20 03:07:34;;;;;;;17.08;11.32;;;8.40;99.90;;;;;;4979103;28;20035;-83
2022/05/20 03:10:00;;;;;;;15.48;11.43;;;8.40;99.90;;;;;;4980270;28;20026;-83
2022/05/20 03:12:26;;;;;;;14.68;10.57;;;8.30;99.90;;;;;;4980133;28;20022;-84
2022/05/20 03:14:52;;;;;;;19.90;13.18;;;8.40;99.90;;;;;;4982167;28;20054;-83
2022/05/20 03:17:17;;;;;;;17.27;11.43;;;8.40;99.90;;;;;;4985970;28;20094;-83
2022/05/20 03:19:43;;;;;;;15.57;11.52;;;8.30;99.90;;;;;;5002213;28;20107;-83
2022/05/20 03:22:09;;;;;;;17.48;11.85;;;8.30;99.90;;;;;;5001071;28;20478;-84
2022/05/20 03:24:34;;;;;;;16.98;11.70;;;8.30;99.90;;;;;;5000600;28;20393;-83
2022/05/20 03:27:00;;;;;;;16.45;12.18;;;8.40;99.90;;;;;;5005553;28;20025;-83
2022/05/20 03:29:26;;;;;;;16.60;11.77;;;8.50;99.90;;;;;;4985461;28;20344;-83
2022/05/20 03:31:51;;;;;;;15.88;12.70;;;8.40;99.90;;;;;;4982361;28;20074;-83
2022/05/20 03:34:18;;;;;;;16.02;11.60;;;8.50;99.90;;;;;;4979898;28;20556;-84
2022/05/20 03:36:46;;;;;;;19.38;12.05;;;8.60;99.90;;;;;;4999202;28;20022;-84
2022/05/20 03:39:15;;;;;;;19.17;13.50;;;8.60;99.90;;;;;;4983023;28;20030;-84
2022/05/20 03:41:41;;;;;;;18.33;13.25;;;8.80;99.90;;;;;;5000385;28;20058;-84
2022/05/20 03:44:09;;;;;;;19.17;12.93;;;8.90;99.90;;;;;;4982654;28;20034;-83
2022/05/20 03:46:43;;;;;;;20.42;13.40;;;8.90;99.90;;;;;;5000057;28;20030;-83
2022/05/20 03:49:09;;;;;;;16.80;12.18;;;9.10;99.90;;;;;;4982966;28;20034;-83
2022/05/20 03:51:35;;;;;;;16.17;11.55;;;9.10;99.90;;;;;;5001334;28;20031;-84
2022/05/20 03:54:01;;;;;;;15.80;11.63;;;9.10;99.90;;;;;;5002357;28;20042;-83
2022/05/20 03:56:27;;;;;;;17.95;11.70;;;9.10;99.90;;;;;;5016761;28;20022;-83
2022/05/20 03:58:53;;;;;;;20.40;12.90;;;9.20;99.90;;;;;;5021690;28;20022;-83
2022/05/20 04:04:03;;;;;;;16.42;12.23;;;9.30;99.90;;;;;;5002676;28;20080;-84
2022/05/20 04:06:29;;;;;;;13.73;11.32;;;9.30;99.90;;;;;;5000382;28;20453;-84
2022/05/20 04:08:55;;;;;;;15.25;11.10;;;9.30;99.90;;;;;;5001780;28;20029;-84
2022/05/20 04:11:22;;;;;;;13.68;10.32;;;9.20;99.90;;;;;;5001650;28;20029;-84
2022/05/20 04:13:47;;;;;;;16.50;10.68;;;9.00;99.90;;;;;;5000702;28;20030;-83
2022/05/20 04:16:14;;;;;;;13.07;11.07;;;9.00;99.90;;;;;;4984095;28;20382;-83
2022/05/20 04:18:41;;;;;;;15.77;10.45;;;9.10;99.90;;;;;;4983453;28;20030;-85
2022/05/20 04:21:07;;;;;;;14.98;10.93;;;9.10;99.90;;;;;;4999272;28;20057;-84
2022/05/20 04:23:33;;;;;;;12.90;9.40;;;9.20;99.90;;;;;;4982447;28;20022;-83
2022/05/20 04:25:59;;;;;;;16.27;11.30;;;9.20;99.90;;;;;;4998240;28;20101;-84
2022/05/20 04:28:24;;;;;;;16.67;10.93;;;9.40;99.90;;;;;;4982547;28;20037;-84
2022/05/20 04:30:56;;;;;;;20.92;13.10;;;9.70;99.90;;;;;;4999318;28;20049;-84
2022/05/20 04:33:21;;;;;;;23.65;13.68;;;10.20;99.90;;;;;;4979697;28;20027;-84
2022/05/20 04:35:47;;;;;;;21.85;15.02;;;12.10;99.90;;;;;;4966230;28;20034;-85
2022/05/20 04:38:13;;;;;;;25.88;16.80;;;13.20;99.90;;;;;;5001557;28;20052;-84
2022/05/20 04:40:38;;;;;;;31.38;18.45;;;14.30;99.90;;;;;;5005233;28;20492;-84
2022/05/20 04:48:33;;;;;;;15.82;11.32;;;14.20;99.90;;;;;;5001126;28;20036;-84
2022/05/20 04:50:59;;;;;;;16.30;10.90;;;12.90;99.90;;;;;;5001847;28;20038;-84
2022/05/20 04:56:09;;;;;;;18.58;12.85;;;12.90;99.90;;;;;;5005602;28;20485;-88
2022/05/20 04:58:35;;;;;;;20.00;13.70;;;15.50;99.90;;;;;;4982294;28;20023;-87
2022/05/20 05:01:01;;;;;;;19.05;13.55;;;17.70;99.90;;;;;;4988237;28;20056;-86
2022/05/20 05:03:27;;;;;;;15.90;11.65;;;18.60;99.90;;;;;;4985837;28;20026;-85
2022/05/20 05:05:52;;;;;;;17.80;11.80;;;19.40;99.90;;;;;;5002438;28;20022;-87
2022/05/20 05:08:18;;;;;;;15.82;10.13;;;21.10;99.90;;;;;;4984824;28;20030;-86
2022/05/20 05:10:44;;;;;;;12.43;9.80;;;21.90;4.80;;;;;;5002607;28;20022;-86
2022/05/20 05:13:14;;;;;;;11.93;9.55;;;23.00;1.00;;;;;;4986469;28;20038;-86
2022/05/20 05:15:42;;;;;;;;;;;23.60;1.00;;;;;;4988704;28;20034;-86
2022/05/20 05:18:12;;;;;;;9.07;7.90;;;23.70;1.00;;;;;;4985312;28;19992;-87
2022/05/20 05:20:50;;;;;;;9.38;8.05;;;22.80;1.00;;;;;;4984406;28;20030;-87
2022/05/20 05:23:17;;;;;;;12.50;8.38;;;23.90;99.90;;;;;;4985723;28;20053;-86
2022/05/20 05:25:43;;;;;;;8.93;7.15;;;25.40;99.90;;;;;;4981249;28;20027;-86
2022/05/20 05:28:09;;;;;;;10.85;8.15;;;26.60;99.90;;;;;;4998701;28;20057;-87
2022/05/20 05:30:35;;;;;;;9.82;6.50;;;26.30;99.90;;;;;;4994936;28;20034;-87
2022/05/20 05:33:01;;;;;;;7.40;5.72;;;26.50;99.90;;;;;;4982461;28;20023;-86
2022/05/20 05:35:29;;;;;;;8.10;5.50;;;28.30;99.90;;;;;;4983704;28;20098;-87
2022/05/20 05:37:55;;;;;;;9.10;5.57;;;30.40;99.90;;;;;;4982070;28;20766;-87
2022/05/20 05:40:24;;;;;;;7.18;5.53;;;29.20;99.90;;;;;;4982089;28;20057;-87
2022/05/20 05:42:50;;;;;;;11.30;5.10;;;30.90;99.90;;;;;;5001887;28;20149;-87
2022/05/20 05:45:23;;;;;;;6.38;4.63;;;29.30;99.90;;;;;;5004832;28;20551;-86
2022/05/20 05:47:54;;;;;;;8.07;4.57;;;29.70;99.90;;;;;;4991267;28;20030;-86
2022/05/20 05:50:20;;;;;;;5.50;3.55;;;29.80;99.90;;;;;;4989154;28;20045;-86
2022/05/20 05:52:53;;;;;;;6.10;3.95;;;30.30;99.90;;;;;;5006914;28;20046;-86
2022/05/20 05:55:18;;;;;;;9.52;4.00;;;29.70;99.90;;;;;;5006181;28;20049;-87
2022/05/20 05:57:44;;;;;;;7.07;4.00;;;29.50;99.90;;;;;;5008913;28;20031;-87
2022/05/20 06:00:12;;;;;;;7.38;4.20;;;28.30;99.90;;;;;;4973711;28;20030;-87
2022/05/20 06:02:37;;;;;;;4.80;3.53;;;26.30;99.90;;;;;;4973195;28;20041;-86
2022/05/20 06:05:03;;;;;;;4.28;3.65;;;23.30;99.90;;;;;;4987515;28;20082;-87
2022/05/20 06:07:29;;;;;;;8.20;4.20;;;25.60;99.90;;;;;;4968808;28;20367;-87
2022/05/20 06:09:54;;;;;;;5.00;3.97;;;24.40;99.90;;;;;;4987702;28;20037;-87
2022/05/20 06:12:20;;;;;;;5.95;4.07;;;26.60;99.90;;;;;;4995419;28;20018;-87
2022/05/20 06:14:45;;;;;;;7.13;4.45;;;26.40;99.90;;;;;;4998280;28;20022;-85
2022/05/20 06:17:11;;;;;;;8.40;4.28;;;23.80;99.90;;;;;;4999197;28;20011;-86
2022/05/20 06:19:38;;;;;;;7.30;4.07;;;24.30;99.90;;;;;;4999350;28;20030;-85
2022/05/20 06:22:04;;;;;;;6.90;3.60;;;27.10;99.90;;;;;;4998225;28;20022;-87
2022/05/20 06:24:29;;;;;;;3.53;3.10;;;27.40;99.90;;;;;;4994676;28;20015;-86
2022/05/20 06:26:55;;;;;;;6.00;3.30;;;28.20;99.90;;;;;;4993795;28;20014;-87
2022/05/20 06:29:20;;;;;;;6.65;3.80;;;25.40;99.90;;;;;;4994927;28;20030;-87
2022/05/20 06:31:46;;;;;;;6.55;3.60;;;23.90;99.90;;;;;;4998460;28;20073;-86
2022/05/20 06:34:12;;;;;;;6.45;3.58;;;27.30;99.90;;;;;;5008619;28;20022;-85
2022/05/20 06:41:54;;;;;;;6.65;4.10;;;27.50;99.90;;;;;;4997062;28;20606;-84
2022/05/20 06:44:20;;;;;;;7.20;4.20;;;27.00;99.90;;;;;;4998856;28;20022;-84
2022/05/20 06:46:46;;;;;;;6.68;3.83;;;26.10;99.90;;;;;;5001619;28;20025;-83
2022/05/20 06:49:12;;;;;;;6.93;4.30;;;26.20;99.90;;;;;;4983266;28;20032;-84
2022/05/20 06:51:38;;;;;;;3.80;3.38;;;29.40;99.90;;;;;;5000030;28;20019;-85
2022/05/20 06:54:07;;;;;;;7.75;4.60;;;31.20;99.90;;;;;;5001555;28;20169;-85
2022/05/20 06:56:32;;;;;;;7.50;4.70;;;27.40;99.90;;;;;;4985281;28;20034;-84
2022/05/20 06:59:00;;;;;;;7.13;4.82;;;27.40;99.90;;;;;;5000986;28;20470;-84
2022/05/20 07:01:27;;;;;;;6.10;5.13;;;29.10;99.90;;;;;;5000265;28;20121;-84
2022/05/20 07:03:53;;;;;;;7.82;5.93;;;29.50;99.90;;;;;;5000892;28;20037;-85
2022/05/20 07:06:22;;;;;;;6.15;5.50;;;31.90;99.90;;;;;;5009001;28;20027;-84
2022/05/20 07:08:50;;;;;;;8.48;5.82;;;33.40;99.90;;;;;;5012134;28;20086;-84
2022/05/20 07:11:19;;;;;;;6.43;5.70;;;32.60;99.90;;;;;;5014249;28;20433;-84
2022/05/20 07:13:45;;;;;;;7.90;5.78;;;31.70;99.90;;;;;;5013199;28;20295;-84
2022/05/20 07:16:12;;;;;;;9.38;6.00;;;31.90;99.90;;;;;;5016334;28;20022;-84
2022/05/20 07:18:37;;;;;;;9.52;6.10;;;29.20;99.90;;;;;;5015286;28;20082;-84
2022/05/20 07:21:03;;;;;;;7.60;5.15;;;29.60;99.90;;;;;;5016401;28;20022;-84
2022/05/20 07:23:31;;;;;;;8.68;5.40;;;30.80;99.90;;;;;;5014956;28;20082;-84
2022/05/20 07:25:56;;;;;;;9.15;6.30;;;30.60;99.90;;;;;;4997618;28;20086;-85
2022/05/20 07:28:23;;;;;;;8.85;6.20;;;30.20;99.90;;;;;;4979619;28;20023;-84
2022/05/20 07:30:48;;;;;;;8.43;6.07;;;29.40;99.90;;;;;;4989927;28;20033;-84
2022/05/20 07:33:14;;;;;;;7.68;5.35;;;30.60;99.90;;;;;;4982020;28;20382;-84
2022/05/20 07:35:40;;;;;;;7.40;5.57;;;29.00;99.90;;;;;;4984572;28;20031;-84
2022/05/20 07:38:07;;;;;;;7.95;6.07;;;27.80;99.90;;;;;;4982617;28;20058;-85
2022/05/20 07:40:33;;;;;;;9.77;6.13;;;26.70;99.90;;;;;;4982094;28;20023;-85
2022/05/20 07:42:58;;;;;;;6.57;5.88;;;26.30;99.90;;;;;;4979576;28;20096;-85
2022/05/20 07:45:24;;;;;;;7.47;5.38;;;26.30;99.90;;;;;;4987004;28;20018;-85
2022/05/20 07:47:50;;;;;;;9.65;5.38;;;25.00;99.90;;;;;;4998842;28;20027;-85
2022/05/20 07:50:16;;;;;;;6.72;6.07;;;24.50;99.90;;;;;;4998212;28;20030;-85
2022/05/20 07:55:36;;;;;;;7.22;6.03;;;22.10;99.90;;;;;;4999383;28;20061;-85
2022/05/20 07:58:05;;;;;;;7.85;6.25;;;24.40;99.90;;;;;;5001187;28;20022;-85
2022/05/20 08:00:31;;;;;;;10.98;7.10;;;25.10;99.90;;;;;;5003754;28;20023;-85
2022/05/20 08:03:00;;;;;;;8.80;7.93;;;23.60;99.90;;;;;;5002410;28;20037;-85
2022/05/20 08:05:26;;;;;;;8.73;7.38;;;23.90;99.90;;;;;;5000828;28;20106;-86
2022/05/20 08:07:59;;;;;;;12.65;7.88;;;25.40;99.90;;;;;;5000917;28;20074;-89
2022/05/20 08:10:26;;;;;;;9.13;6.82;;;27.40;99.90;;;;;;5005010;28;20462;-89
2022/05/20 08:12:52;;;;;;;10.38;6.50;;;27.90;99.90;;;;;;5006455;28;20086;-88
2022/05/20 08:15:18;;;;;;;7.57;6.50;;;27.60;99.90;;;;;;5007257;28;20030;-89
2022/05/20 08:17:43;;;;;;;8.63;6.68;;;26.30;99.90;;;;;;5009363;28;20141;-88
2022/05/20 08:20:29;;;;;;;8.73;6.25;;;27.90;99.90;;;;;;5007781;28;20026;-90
2022/05/20 08:22:56;;;;;;;7.03;6.22;;;28.50;99.90;;;;;;5013294;28;20033;-85
2022/05/20 08:25:24;;;;;;;6.95;5.97;;;29.80;99.90;;;;;;5019438;28;20018;-85
2022/05/20 08:27:50;;;;;;;9.20;6.43;;;29.20;99.90;;;;;;5019238;28;20070;-85
2022/05/20 08:30:19;;;;;;;9.73;6.50;;;26.10;99.90;;;;;;5011305;28;20030;-90
2022/05/20 08:32:44;;;;;;;7.72;6.28;;;26.50;99.90;;;;;;5007990;28;20026;-90
2022/05/20 08:35:11;;;;;;;9.50;7.05;;;26.70;99.90;;;;;;4986364;28;20069;-90
2022/05/20 08:37:39;;;;;;;7.63;6.82;;;26.60;99.90;;;;;;4985682;28;20080;-91
2022/05/20 08:40:10;;;;;;;8.10;6.95;;;28.00;99.90;;;;;;4985993;28;20022;-90
2022/05/20 08:42:37;;;;;;;9.20;6.90;;;25.70;99.90;;;;;;4988059;28;20041;-89
2022/05/20 08:45:04;;;;;;;7.32;6.60;;;24.30;99.90;;;;;;4975619;28;20095;-90
2022/05/20 08:47:48;;;;;;;9.27;6.85;;;26.20;99.90;;;;;;4954164;28;20035;-89
2022/05/20 08:50:24;;;;;;;9.25;7.32;;;26.00;99.90;;;;;;4966131;28;20125;-90
2022/05/20 08:52:54;;;;;;;8.68;7.10;;;27.90;99.90;;;;;;4966094;28;20033;-90
2022/05/20 08:55:20;;;;;;;8.88;7.97;;;27.10;99.90;;;;;;4979905;28;20088;-91
2022/05/20 08:57:53;;;;;;;11.20;7.57;;;25.30;99.90;;;;;;4987429;28;20053;-90
2022/05/20 09:00:19;;;;;;;10.55;8.25;;;27.10;99.90;;;;;;4988411;28;20034;-90
2022/05/20 09:02:44;;;;;;;10.20;7.65;;;25.90;99.90;;;;;;4987603;28;20050;-90
2022/05/20 09:05:22;;;;;;;7.75;6.95;;;26.30;99.90;;;;;;4985076;28;20073;-91
2022/05/20 09:08:05;;;;;;;8.68;7.80;;;26.00;99.90;;;;;;4985745;28;20034;-89
2022/05/20 09:10:44;;;;;;;9.00;7.10;;;25.80;99.90;;;;;;4991321;28;20026;-91
2022/05/20 09:16:20;;;;;;;9.75;7.68;;;26.70;99.90;;;;;;5010081;28;20053;-91
2022/05/20 09:18:49;;;;;;;9.73;7.88;;;26.90;99.90;;;;;;4991474;28;20050;-89
2022/05/20 09:21:33;;;;;;;8.75;7.25;;;27.00;99.90;;;;;;4990940;28;20019;-90
2022/05/20 09:24:03;;;;;;;8.38;6.55;;;24.90;99.90;;;;;;4991097;28;20084;-88
2022/05/20 09:26:44;;;;;;;8.23;6.45;;;25.10;99.90;;;;;;4993212;28;20030;-90
2022/05/20 09:29:26;;;;;;;9.52;6.90;;;25.50;99.90;;;;;;4992029;28;20029;-90
2022/05/20 09:32:02;;;;;;;9.48;7.50;;;24.50;99.90;;;;;;4993748;28;20102;-91
2022/05/20 09:34:27;;;;;;;10.05;7.13;;;22.90;99.90;;;;;;4994022;28;20105;-90
2022/05/20 09:36:57;;;;;;;8.07;6.35;;;21.50;99.90;;;;;;4997280;28;20007;-89
2022/05/20 09:39:30;;;;;;;7.32;6.32;;;20.60;99.90;;;;;;4998057;28;20098;-89
2022/05/20 09:41:59;;;;;;;10.30;7.88;;;21.30;99.90;;;;;;4992225;28;20065;-91
2022/05/20 09:44:33;;;;;;;10.30;7.00;;;21.40;99.90;;;;;;4973672;28;20102;-88
2022/05/20 09:47:04;;;;;;;10.05;8.85;;;21.20;99.90;;;;;;4990605;28;20086;-90
2022/05/20 09:49:38;;;;;;;9.32;8.30;;;20.60;99.90;;;;;;4971990;28;20390;-90
2022/05/20 09:52:16;;;;;;;16.88;9.57;;;20.50;99.90;;;;;;4977332;28;20030;-89
2022/05/20 09:54:47;;;;;;;10.10;8.93;;;20.30;99.90;;;;;;4975452;28;20065;-88
2022/05/20 09:57:28;;;;;;;10.73;9.07;;;20.70;99.90;;;;;;5015060;28;20086;-89
2022/05/20 10:00:05;;;;;;;11.45;9.35;;;20.70;99.90;;;;;;4994173;28;20026;-88
2022/05/20 10:02:43;;;;;;;11.13;9.35;;;21.40;99.90;;;;;;5008564;28;20385;-88
2022/05/20 10:05:26;;;;;;;10.13;8.95;;;21.00;99.90;;;;;;4943299;29;20031;-91
2022/05/20 10:08:20;;;;;;;11.90;8.77;;;20.30;99.90;;;;;;4962342;28;20398;-90
2022/05/20 10:11:09;;;;;;;14.00;10.55;;;20.60;99.90;;;;;;4971120;28;20120;-92
2022/05/20 10:13:53;;;;;;;12.57;10.15;;;20.30;99.90;;;;;;4979654;28;20027;-90
2022/05/20 10:16:37;;;;;;;11.13;9.80;;;20.20;99.90;;;;;;4966023;28;20122;-88
2022/05/20 10:19:28;;;;;;;15.60;10.48;;;20.70;99.90;;;;;;4988681;28;20031;-86
2022/05/20 10:21:58;;;;;;;11.07;9.70;;;20.30;99.90;;;;;;4992767;28;20022;-86
2022/05/20 10:24:23;;;;;;;11.48;9.77;;;20.90;99.90;;;;;;4980219;28;20033;-85
2022/05/20 10:27:00;;;;;;;12.10;10.02;;;21.40;99.90;;;;;;4994453;28;20050;-87
2022/05/20 10:33:02;;;;;;;12.75;10.25;;;21.40;99.90;;;;;;4985141;28;20034;-88
2022/05/20 10:35:38;;;;;;;12.18;9.63;;;21.60;99.90;;;;;;4963854;28;20070;-88
2022/05/20 10:38:26;;;;;;;11.55;10.20;;;21.60;99.90;;;;;;4993338;28;20090;-86
2022/05/20 10:41:06;;;;;;;11.38;10.20;;;21.50;99.90;;;;;;4967293;28;20082;-87
2022/05/20 10:49:49;;;;;;;12.07;10.95;;;21.00;99.90;;;;;;4984225;28;20037;-88
2022/05/20 10:52:35;;;;;;;11.98;10.82;;;21.70;99.90;;;;;;4978472;28;20034;-88
2022/05/20 10:55:32;;;;;;;12.10;9.70;;;21.70;99.90;;;;;;4951678;29;20051;-87
2022/05/20 10:58:34;;;;;;;14.85;10.82;;;22.30;99.90;;;;;;4955511;29;20555;-89
2022/05/20 11:01:13;;;;;;;13.07;10.18;;;21.70;99.90;;;;;;4935860;29;20044;-92
2022/05/20 11:03:39;;;;;;;13.43;11.38;;;20.70;99.90;;;;;;4964545;29;20019;-87
2022/05/20 11:06:49;;;;;;;13.63;11.10;;;20.30;99.90;;;;;;4964915;28;20027;-87
2022/05/20 11:09:39;;;;;;;13.02;10.75;;;20.20;99.90;;;;;;4975362;28;20498;-85
2022/05/20 11:12:05;;;;;;;13.88;10.55;;;21.20;99.90;;;;;;4972747;28;20050;-88
2022/05/20 11:14:57;;;;;;;11.10;9.27;;;22.00;99.90;;;;;;4972025;28;20037;-87
2022/05/20 11:17:46;;;;;;;11.27;8.60;;;21.80;99.90;;;;;;4983275;28;20039;-88
2022/05/20 11:20:41;;;;;;;10.32;9.30;;;21.50;99.90;;;;;;4977064;28;20031;-81
2022/05/20 11:23:25;;;;;;;12.68;10.40;;;21.10;99.90;;;;;;4972944;28;20043;-82
2022/05/20 11:25:56;;;;;;;12.05;10.23;;;20.80;99.90;;;;;;4994451;28;20075;-84
2022/05/20 11:28:48;;;;;;;14.35;9.90;;;20.30;99.90;;;;;;4991241;28;20030;-84
2022/05/20 11:31:26;;;;;;;11.20;10.02;;;21.00;99.90;;;;;;4984953;28;20026;-84
2022/05/20 11:34:17;;;;;;;13.45;10.75;;;20.60;99.90;;;;;;4994911;28;20027;-84
2022/05/20 11:37:21;;;;;;;14.25;9.90;;;20.00;99.90;;;;;;4996473;28;20603;-84
2022/05/20 11:39:55;;;;;;;13.38;10.73;;;20.00;99.90;;;;;;4995198;28;20038;-84
2022/05/20 11:42:46;;;;;;;14.60;9.40;;;20.50;99.90;;;;;;4975766;28;20064;-84
2022/05/20 11:45:21;;;;;;;10.55;9.45;;;20.40;99.90;;;;;;4990262;28;20034;-84
2022/05/20 11:48:04;;;;;;;11.10;9.23;;;19.80;99.90;;;;;;4972292;28;20090;-85
2022/05/20 11:50:32;;;;;;;9.65;8.25;;;19.80;99.90;;;;;;4968433;29;20019;-85
2022/05/20 11:53:11;;;;;;;9.38;8.15;;;20.60;99.90;;;;;;4983771;28;20430;-86
2022/05/20 11:55:42;;;;;;;9.35;8.32;;;20.50;99.90;;;;;;4998699;28;20022;-86
2022/05/20 11:58:17;;;;;;;9.10;7.95;;;20.50;99.90;;;;;;4997430;28;20430;-86
2022/05/20 12:00:43;;;;;;;10.25;7.80;;;20.20;99.90;;;;;;4997687;28;20026;-87
2022/05/20 12:03:21;;;;;;;10.43;8.00;;;20.80;99.90;;;;;;4997373;28;20073;-88
2022/05/20 12:05:49;;;;;;;9.10;7.25;;;20.20;99.90;;;;;;4997357;28;20041;-88
2022/05/20 12:08:44;;;;;;;8.95;7.85;;;20.20;99.90;;;;;;4997170;28;20022;-88
2022/05/20 12:11:45;;;;;;;9.25;7.55;;;19.30;99.90;;;;;;4996865;28;20101;-87
2022/05/20 12:14:16;;;;;;;7.60;6.82;;;19.50;99.90;;;;;;4976917;28;20047;-85
2022/05/20 12:17:02;;;;;;;10.00;6.65;;;20.10;99.90;;;;;;4978592;28;20356;-85
2022/05/20 12:25:36;;;;;;;8.90;6.60;;;19.30;99.90;;;;;;5001235;28;20049;-84
2022/05/20 12:28:08;;;;;;;8.05;6.00;;;19.40;99.90;;;;;;4988915;28;20035;-83
2022/05/20 12:30:39;;;;;;;7.93;6.00;;;19.20;99.90;;;;;;4997552;28;20375;-83
2022/05/20 12:33:23;;;;;;;9.20;6.60;;;19.40;99.90;;;;;;4979941;28;20066;-86
2022/05/20 12:36:27;;;;;;;7.43;5.60;;;19.70;99.90;;;;;;4983522;28;20118;-85
2022/05/20 12:39:16;;;;;;;6.05;4.88;;;19.90;99.90;;;;;;4963144;28;20062;-86
2022/05/20 12:41:47;;;;;;;6.95;5.18;;;19.60;99.90;;;;;;4959910;28;20546;-85
2022/05/20 12:44:16;;;;;;;6.32;5.03;;;20.00;99.90;;;;;;4959648;28;20023;-86
2022/05/20 12:47:14;;;;;;;8.50;5.13;;;19.60;99.90;;;;;;4973650;28;20386;-85
2022/05/20 12:49:48;;;;;;;5.60;4.65;;;19.80;99.90;;;;;;4978915;28;20042;-85
2022/05/20 12:52:22;;;;;;;6.05;4.78;;;19.30;99.90;;;;;;4978889;28;20485;-85
2022/05/20 12:54:52;;;;;;;5.53;4.63;;;19.30;99.90;;;;;;4978285;28;20104;-85
2022/05/20 12:57:28;;;;;;;7.20;4.90;;;18.90;99.90;;;;;;4996011;28;20440;-85
2022/05/20 13:00:04;;;;;;;5.72;4.60;;;18.50;99.90;;;;;;4978811;28;20035;-85
2022/05/20 13:02:42;;;;;;;5.85;4.32;;;18.20;99.90;;;;;;4978976;28;20030;-90
2022/05/20 13:05:14;;;;;;;9.27;5.20;;;18.30;99.90;;;;;;4996319;28;20010;-89
2022/05/20 13:07:42;;;;;;;7.20;4.45;;;18.20;99.90;;;;;;4982340;28;20069;-85
2022/05/20 13:10:32;;;;;;;7.20;5.05;;;18.30;99.90;;;;;;4978945;28;20049;-85
2022/05/20 13:13:01;;;;;;;9.43;4.95;;;18.30;99.90;;;;;;4978022;28;20018;-85
2022/05/20 13:15:27;;;;;;;7.77;5.07;;;18.20;99.90;;;;;;4996174;28;20023;-86
2022/05/20 13:18:05;;;;;;;7.13;5.45;;;18.00;99.90;;;;;;4978299;28;20089;-85
2022/05/20 13:20:33;;;;;;;6.15;5.47;;;18.00;99.90;;;;;;4978115;28;20023;-86
2022/05/20 13:23:01;;;;;;;8.75;6.22;;;17.80;99.90;;;;;;4978614;28;20050;-86
2022/05/20 13:25:27;;;;;;;10.18;5.82;;;17.80;99.90;;;;;;4980876;28;20031;-88
2022/05/20 13:27:52;;;;;;;8.90;5.90;;;17.60;1.00;;;;;;4962576;28;20504;-86
2022/05/20 13:30:21;;;;;;;8.75;6.20;;;17.40;1.00;;;;;;4962782;28;20034;-85
2022/05/20 13:32:46;;;;;;;10.90;6.10;;;17.40;1.00;;;;;;4995647;28;20027;-84
2022/05/20 13:35:13;;;;;;;9.88;6.22;;;17.50;1.00;;;;;;4969234;28;20030;-84
2022/05/20 13:37:40;;;;;;;11.13;6.78;;;17.20;1.00;;;;;;4986154;28;20030;-83
2022/05/20 13:40:33;;;;;;;10.95;6.65;;;17.20;48.70;;;;;;5005497;28;20022;-83
2022/05/20 13:43:01;;;;;;;12.18;7.80;;;17.00;80.30;;;;;;4999432;28;20031;-84
2022/05/20 13:51:13;;;;;;;14.25;7.85;;;17.00;99.90;;;;;;5015814;28;20033;-83